createdAt,value
2018-06-30T00:01:49.870Z,20.3
2018-06-30T00:03:52.240Z,20.5
2018-06-30T00:05:54.608Z,20.3
2018-06-30T00:07:56.977Z,5.4
2018-06-30T00:09:59.348Z,4.6
2018-06-30T00:12:01.713Z,4.6
2018-06-30T00:14:04.079Z,4.6
2018-06-30T00:16:06.447Z,4.6
2018-06-30T00:18:08.815Z,4.6
2018-06-30T00:20:11.182Z,4.6
2018-06-30T00:22:13.577Z,4.6
2018-06-30T00:24:15.938Z,4.6
2018-06-30T00:26:18.314Z,4.6
2018-06-30T00:28:20.674Z,4.6
2018-06-30T00:30:23.042Z,4.6
2018-06-30T00:32:25.423Z,4.6
2018-06-30T00:34:27.790Z,4.6
2018-06-30T00:36:30.157Z,4.6
2018-06-30T00:38:32.526Z,4.6
2018-06-30T00:40:38.084Z,4.6
2018-06-30T00:42:40.390Z,4.6
2018-06-30T00:44:42.756Z,4.6
2018-06-30T00:46:45.125Z,4.6
2018-06-30T00:48:47.507Z,4.6
2018-06-30T00:50:49.877Z,4.6
2018-06-30T00:52:52.242Z,4.6
2018-06-30T00:54:54.624Z,4.6
2018-06-30T00:56:59.944Z,4.6
2018-06-30T00:59:02.305Z,4.6
2018-06-30T01:01:04.673Z,4.6
2018-06-30T01:03:07.043Z,4.6
2018-06-30T01:05:09.408Z,4.6
2018-06-30T01:07:11.785Z,4.6
2018-06-30T01:09:14.152Z,4.6
2018-06-30T01:11:16.520Z,4.6
2018-06-30T01:13:18.887Z,4.6
2018-06-30T01:15:21.256Z,4.6
2018-06-30T01:17:23.623Z,4.6
2018-06-30T01:19:25.990Z,4.6
2018-06-30T01:21:28.359Z,4.6
2018-06-30T01:23:30.723Z,4.6
2018-06-30T01:25:33.092Z,4.6
2018-06-30T01:27:35.498Z,4.6
2018-06-30T01:29:38.747Z,4.6
2018-06-30T01:31:41.107Z,4.6
2018-06-30T01:33:43.497Z,4.6
2018-06-30T01:35:45.887Z,4.6
2018-06-30T01:37:48.233Z,4.6
2018-06-30T01:39:50.601Z,4.6
2018-06-30T01:41:52.968Z,4.6
2018-06-30T01:43:55.339Z,4.6
2018-06-30T01:45:57.706Z,4.6
2018-06-30T01:48:00.071Z,4.6
2018-06-30T01:50:02.440Z,4.6
2018-06-30T01:52:04.809Z,4.6
2018-06-30T01:54:07.176Z,4.6
2018-06-30T01:56:09.568Z,4.6
2018-06-30T01:58:11.963Z,4.6
2018-06-30T02:00:14.332Z,4.6
2018-06-30T02:02:16.701Z,4.6
2018-06-30T02:04:19.064Z,4.6
2018-06-30T02:06:21.432Z,4.6
2018-06-30T02:08:23.799Z,4.6
2018-06-30T02:10:26.168Z,4.6
2018-06-30T02:12:28.539Z,4.6
2018-06-30T02:14:30.904Z,4.6
2018-06-30T02:16:33.271Z,4.6
2018-06-30T02:18:35.639Z,4.6
2018-06-30T02:20:38.008Z,4.6
2018-06-30T02:22:40.373Z,4.6
2018-06-30T02:24:42.751Z,4.6
2018-06-30T02:26:47.818Z,4.6
2018-06-30T02:28:50.185Z,4.6
2018-06-30T02:30:52.559Z,4.6
2018-06-30T02:32:55.834Z,4.6
2018-06-30T02:34:58.200Z,4.6
2018-06-30T02:37:00.597Z,4.6
2018-06-30T02:39:02.967Z,4.6
2018-06-30T02:41:05.352Z,4.6
2018-06-30T02:43:07.721Z,4.6
2018-06-30T02:45:10.089Z,4.6
2018-06-30T02:47:12.460Z,4.7
2018-06-30T02:49:14.825Z,4.7
2018-06-30T02:51:17.192Z,4.6
2018-06-30T02:53:20.577Z,4.7
2018-06-30T02:55:22.938Z,4.7
2018-06-30T02:57:25.304Z,4.7
2018-06-30T02:59:27.675Z,4.7
2018-06-30T03:01:30.047Z,4.7
2018-06-30T03:03:32.408Z,4.7
2018-06-30T03:05:34.801Z,4.7
2018-06-30T03:07:37.167Z,4.7
2018-06-30T03:09:39.533Z,4.7
2018-06-30T03:11:41.919Z,4.7
2018-06-30T03:13:44.287Z,4.7
2018-06-30T03:15:46.726Z,4.8
2018-06-30T03:17:49.031Z,4.8
2018-06-30T03:19:52.485Z,4.8
2018-06-30T03:21:54.790Z,4.8
2018-06-30T03:23:57.172Z,4.9
2018-06-30T03:25:59.536Z,4.9
2018-06-30T03:28:01.905Z,4.9
2018-06-30T03:30:04.285Z,4.9
2018-06-30T03:32:06.641Z,4.8
2018-06-30T03:34:09.008Z,4.8
2018-06-30T03:36:11.422Z,4.9
2018-06-30T03:38:13.792Z,4.9
2018-06-30T03:40:16.158Z,4.8
2018-06-30T03:42:18.524Z,4.8
2018-06-30T03:44:20.893Z,4.9
2018-06-30T03:46:23.413Z,4.9
2018-06-30T03:48:25.780Z,5
2018-06-30T03:50:28.147Z,5
2018-06-30T03:52:30.529Z,4.9
2018-06-30T03:54:32.946Z,4.9
2018-06-30T03:56:35.262Z,4.9
2018-06-30T03:58:37.633Z,0.4
2018-06-30T04:00:39.997Z,0.4
2018-06-30T04:02:42.417Z,0.6
2018-06-30T04:04:44.733Z,0.6
2018-06-30T04:06:47.154Z,0.7
2018-06-30T04:08:49.493Z,0.6
2018-06-30T04:10:51.860Z,0.6
2018-06-30T04:12:54.230Z,0.7
2018-06-30T04:14:56.595Z,1
2018-06-30T04:16:58.961Z,1.3
2018-06-30T04:19:01.329Z,1.5
2018-06-30T04:21:03.696Z,1.7
2018-06-30T04:23:06.064Z,2
2018-06-30T04:25:08.432Z,1.5
2018-06-30T04:27:10.809Z,0.8
2018-06-30T04:29:13.167Z,0.6
2018-06-30T04:31:15.535Z,0.6
2018-06-30T04:33:17.939Z,0.9
2018-06-30T04:35:20.271Z,1.1
2018-06-30T04:37:22.646Z,1.1
2018-06-30T04:39:25.012Z,1.1
2018-06-30T04:41:27.379Z,1.1
2018-06-30T04:43:29.772Z,1.3
2018-06-30T04:45:32.140Z,1.1
2018-06-30T04:47:34.505Z,1.2
2018-06-30T04:49:36.871Z,1.3
2018-06-30T04:51:39.240Z,1.3
2018-06-30T04:53:41.609Z,1.2
2018-06-30T04:55:43.975Z,0.9
2018-06-30T04:57:46.369Z,0.8
2018-06-30T04:59:48.924Z,0.7
2018-06-30T05:01:51.292Z,0.7
2018-06-30T05:03:53.659Z,0.6
2018-06-30T05:05:56.038Z,0.7
2018-06-30T05:07:58.404Z,0.6
2018-06-30T05:10:00.772Z,0.5
2018-06-30T05:12:03.140Z,0.6
2018-06-30T05:14:05.509Z,0.8
2018-06-30T05:16:07.876Z,0.7
2018-06-30T05:18:10.243Z,0.9
2018-06-30T05:20:12.612Z,0.9
2018-06-30T05:22:14.996Z,0.7
2018-06-30T05:24:17.360Z,0.7
2018-06-30T05:26:19.727Z,21.5
2018-06-30T05:28:22.114Z,21.5
2018-06-30T05:30:24.482Z,21.4
2018-06-30T05:32:26.867Z,21.5
2018-06-30T05:34:29.224Z,21.6
2018-06-30T05:36:31.592Z,21.4
2018-06-30T05:38:33.962Z,21.4
2018-06-30T05:40:36.330Z,21.6
2018-06-30T05:42:39.707Z,22.1
2018-06-30T05:44:42.076Z,23
2018-06-30T05:46:44.444Z,23.6
2018-06-30T05:48:46.816Z,23
2018-06-30T05:50:49.182Z,23.9
2018-06-30T05:52:51.555Z,24.5
2018-06-30T05:54:53.921Z,23
2018-06-30T05:56:56.303Z,22.1
2018-06-30T05:58:58.683Z,21.8
2018-06-30T06:01:01.048Z,22
2018-06-30T06:03:03.424Z,21.8
2018-06-30T06:05:05.791Z,20.9
2018-06-30T06:07:08.160Z,20.6
2018-06-30T06:09:10.531Z,20.6
2018-06-30T06:11:12.903Z,19
2018-06-30T06:13:15.304Z,18.7
2018-06-30T06:15:21.175Z,18.6
2018-06-30T06:17:24.357Z,18.6
2018-06-30T06:19:26.725Z,18.5
2018-06-30T06:21:29.307Z,18.2
2018-06-30T06:23:31.679Z,18.2
2018-06-30T06:25:34.046Z,17.7
2018-06-30T06:27:36.648Z,17.9
2018-06-30T06:29:39.107Z,17.5
2018-06-30T06:31:41.475Z,1.2
2018-06-30T06:33:43.839Z,1.2
2018-06-30T06:35:46.211Z,1
2018-06-30T06:37:48.581Z,1.1
2018-06-30T06:39:50.953Z,1.1
2018-06-30T06:41:53.339Z,1.4
2018-06-30T06:43:55.710Z,1.8
2018-06-30T06:45:58.083Z,2.2
2018-06-30T06:48:00.455Z,2.2
2018-06-30T06:50:02.817Z,2.3
2018-06-30T06:52:05.183Z,2.3
2018-06-30T06:54:07.551Z,2.7
2018-06-30T06:56:09.919Z,4.2
2018-06-30T06:58:12.290Z,4.6
2018-06-30T07:00:14.688Z,4
2018-06-30T07:02:17.103Z,3.7
2018-06-30T07:04:19.519Z,4.8
2018-06-30T07:06:21.841Z,4.4
2018-06-30T07:08:24.231Z,3.7
2018-06-30T07:10:26.582Z,4
2018-06-30T07:12:28.954Z,4.5
2018-06-30T07:14:31.322Z,5.1
2018-06-30T07:16:33.688Z,5.3
2018-06-30T07:18:36.057Z,5.1
2018-06-30T07:20:38.420Z,23
2018-06-30T07:22:40.788Z,23.9
2018-06-30T07:24:43.468Z,23.9
2018-06-30T07:26:46.786Z,7.1
2018-06-30T07:28:49.152Z,4.9
2018-06-30T07:30:51.651Z,4.3
2018-06-30T07:32:53.971Z,21.8
2018-06-30T07:34:56.451Z,21.1
2018-06-30T07:36:59.847Z,20.4
2018-06-30T07:39:02.211Z,19.9
2018-06-30T07:41:04.591Z,19.3
2018-06-30T07:43:06.955Z,19.1
2018-06-30T07:45:09.336Z,19.1
2018-06-30T07:47:11.715Z,19.1
2018-06-30T07:49:17.977Z,19.4
2018-06-30T07:51:20.596Z,19.6
2018-06-30T07:53:23.029Z,20.6
2018-06-30T07:55:25.400Z,21.1
2018-06-30T07:57:27.763Z,4.7
2018-06-30T07:59:30.133Z,5.7
2018-06-30T08:01:32.531Z,6.7
2018-06-30T08:03:34.904Z,7.7
2018-06-30T08:05:37.266Z,7.3
2018-06-30T08:07:39.642Z,8
2018-06-30T08:09:42.353Z,8.1
2018-06-30T08:11:44.698Z,6.8
2018-06-30T08:13:47.221Z,6.7
2018-06-30T08:15:49.547Z,6.4
2018-06-30T08:17:54.700Z,6.5
2018-06-30T08:19:57.068Z,6.7
2018-06-30T08:21:59.503Z,7.5
2018-06-30T08:24:01.832Z,8.5
2018-06-30T08:26:04.257Z,7.7
2018-06-30T08:28:06.599Z,8.6
2018-06-30T08:30:09.373Z,10.9
2018-06-30T08:32:11.813Z,10.8
2018-06-30T08:34:14.518Z,10.1
2018-06-30T08:36:16.919Z,9.7
2018-06-30T08:38:19.319Z,10.7
2018-06-30T08:40:21.688Z,13.4
2018-06-30T08:42:24.057Z,13.5
2018-06-30T08:44:26.561Z,31
2018-06-30T08:46:28.909Z,32.2
2018-06-30T08:48:31.285Z,12.6
2018-06-30T08:50:33.655Z,11.9
2018-06-30T08:52:36.049Z,12.1
2018-06-30T08:54:38.457Z,25.7
2018-06-30T08:56:40.821Z,24.1
2018-06-30T08:58:43.201Z,23
2018-06-30T09:00:45.852Z,24.5
2018-06-30T09:02:48.488Z,23
2018-06-30T09:04:50.872Z,22.4
2018-06-30T09:06:53.253Z,19.7
2018-06-30T09:08:55.627Z,20.3
2018-06-30T09:10:58.007Z,22.9
2018-06-30T09:13:00.471Z,21.6
2018-06-30T09:15:02.840Z,21.7
2018-06-30T09:17:05.211Z,21.8
2018-06-30T09:19:07.602Z,24.3
2018-06-30T09:21:09.977Z,24.7
2018-06-30T09:23:12.365Z,20.3
2018-06-30T09:25:14.733Z,19.3
2018-06-30T09:27:17.144Z,24.1
2018-06-30T09:29:19.476Z,23.9
2018-06-30T09:31:21.846Z,24.1
2018-06-30T09:33:24.218Z,22.8
2018-06-30T09:35:26.593Z,22
2018-06-30T09:37:28.956Z,23.8
2018-06-30T09:39:31.329Z,24.8
2018-06-30T09:41:36.499Z,25.4
2018-06-30T09:43:38.872Z,21
2018-06-30T09:45:41.249Z,20.6
2018-06-30T09:47:43.606Z,19.1
2018-06-30T09:49:46.060Z,19.1
2018-06-30T09:51:48.378Z,21.1
2018-06-30T09:53:50.797Z,23.4
2018-06-30T09:55:53.116Z,23.4
2018-06-30T09:57:55.490Z,23
2018-06-30T09:59:58.052Z,24.5
2018-06-30T10:02:00.429Z,26.1
2018-06-30T10:04:02.792Z,25.7
2018-06-30T10:06:05.163Z,8.6
2018-06-30T10:08:07.581Z,10.4
2018-06-30T10:10:09.951Z,9.5
2018-06-30T10:12:12.329Z,7.9
2018-06-30T10:14:14.686Z,9.4
2018-06-30T10:16:17.049Z,12.8
2018-06-30T10:18:19.417Z,13.2
2018-06-30T10:20:21.791Z,12.4
2018-06-30T10:22:24.154Z,16
2018-06-30T10:24:26.523Z,11.4
2018-06-30T10:26:28.900Z,16.1
2018-06-30T10:28:31.263Z,10.1
2018-06-30T10:30:34.570Z,12
2018-06-30T10:32:36.936Z,12.7
2018-06-30T10:34:39.316Z,10.7
2018-06-30T10:36:41.678Z,17.3
2018-06-30T10:38:44.051Z,11.9
2018-06-30T10:40:46.461Z,18
2018-06-30T10:42:48.791Z,10.7
2018-06-30T10:44:51.189Z,10.4
2018-06-30T10:46:53.557Z,25.2
2018-06-30T10:48:55.930Z,25.9
2018-06-30T10:50:58.299Z,23.4
2018-06-30T10:53:00.674Z,24.5
2018-06-30T10:55:03.039Z,27.2
2018-06-30T10:57:05.409Z,28.3
2018-06-30T10:59:07.797Z,25.4
2018-06-30T11:01:11.097Z,35.6
2018-06-30T11:03:13.473Z,31.3
2018-06-30T11:05:16.144Z,22.5
2018-06-30T11:07:18.547Z,23.6
2018-06-30T11:09:21.131Z,25.4
2018-06-30T11:11:23.683Z,29
2018-06-30T11:13:26.052Z,29.7
2018-06-30T11:15:28.421Z,28.6
2018-06-30T11:17:30.917Z,28.1
2018-06-30T11:19:33.272Z,37.3
2018-06-30T11:21:35.642Z,27.2
2018-06-30T11:23:38.010Z,30.1
2018-06-30T11:25:40.395Z,20.7
2018-06-30T11:27:42.764Z,25.4
2018-06-30T11:29:45.130Z,25.7
2018-06-30T11:31:47.502Z,23.9
2018-06-30T11:33:49.871Z,24.7
2018-06-30T11:35:52.282Z,21.8
2018-06-30T11:37:54.631Z,26.5
2018-06-30T11:39:56.999Z,38.2
2018-06-30T11:41:59.370Z,35.6
2018-06-30T11:44:01.809Z,36
2018-06-30T11:46:07.785Z,25.9
2018-06-30T11:48:17.316Z,28.8
2018-06-30T11:50:19.753Z,23.8
2018-06-30T11:52:22.095Z,27.4
2018-06-30T11:54:24.483Z,26.6
2018-06-30T11:56:26.858Z,33.3
2018-06-30T11:58:29.227Z,31.5
2018-06-30T12:00:31.600Z,29.7
2018-06-30T12:02:33.966Z,28.4
2018-06-30T12:04:36.571Z,25.4
2018-06-30T12:06:39.119Z,26.5
2018-06-30T12:08:41.483Z,29.7
2018-06-30T12:10:43.879Z,27.4
2018-06-30T12:12:46.257Z,12
2018-06-30T12:14:48.638Z,28.4
2018-06-30T12:16:51.003Z,28.8
2018-06-30T12:18:53.371Z,29.7
2018-06-30T12:20:55.740Z,31.1
2018-06-30T12:22:58.116Z,31
2018-06-30T12:25:00.490Z,34.4
2018-06-30T12:27:02.871Z,13.7
2018-06-30T12:29:08.117Z,34.7
2018-06-30T12:31:10.530Z,33.5
2018-06-30T12:33:12.922Z,34.7
2018-06-30T12:35:15.338Z,33.7
2018-06-30T12:37:17.942Z,32.9
2018-06-30T12:39:20.310Z,31.3
2018-06-30T12:41:22.680Z,25.9
2018-06-30T12:43:25.044Z,25.2
2018-06-30T12:45:27.413Z,27.4
2018-06-30T12:47:29.781Z,28.6
2018-06-30T12:49:32.151Z,28.4
2018-06-30T12:51:34.523Z,27
2018-06-30T12:53:36.906Z,30.1
2018-06-30T12:55:39.269Z,29.3
2018-06-30T12:57:41.643Z,31.3
2018-06-30T12:59:44.012Z,31.5
2018-06-30T13:01:46.386Z,35.3
2018-06-30T13:03:48.868Z,34.9
2018-06-30T13:05:51.283Z,32.8
2018-06-30T13:07:53.652Z,29.7
2018-06-30T13:09:56.021Z,32.2
2018-06-30T13:11:58.389Z,28.1
2018-06-30T13:14:01.687Z,19.4
2018-06-30T13:16:04.061Z,22.3
2018-06-30T13:18:06.430Z,31.1
2018-06-30T13:20:08.802Z,30.8
2018-06-30T13:22:11.168Z,32.6
2018-06-30T13:24:13.535Z,40.1
2018-06-30T13:26:15.908Z,39.4
2018-06-30T13:28:18.271Z,40.1
2018-06-30T13:30:20.643Z,40.7
2018-06-30T13:32:23.016Z,41
2018-06-30T13:34:25.536Z,41.4
2018-06-30T13:36:27.896Z,41.8
2018-06-30T13:38:30.274Z,42.8
2018-06-30T13:40:32.638Z,41.9
2018-06-30T13:42:35.008Z,44.3
2018-06-30T13:44:37.376Z,44.5
2018-06-30T13:46:39.761Z,45.4
2018-06-30T13:48:42.132Z,45.7
2018-06-30T13:50:44.515Z,46.4
2018-06-30T13:52:47.204Z,46.1
2018-06-30T13:54:49.529Z,48.6
2018-06-30T13:56:51.893Z,48.2
2018-06-30T13:58:54.261Z,48.6
2018-06-30T14:00:56.939Z,50
2018-06-30T14:02:59.268Z,51.1
2018-06-30T14:05:01.638Z,52.9
2018-06-30T14:07:04.148Z,51.8
2018-06-30T14:09:09.317Z,52.2
2018-06-30T14:11:11.653Z,52.9
2018-06-30T14:13:14.052Z,54.7
2018-06-30T14:15:16.388Z,29.3
2018-06-30T14:17:18.754Z,17.6
2018-06-30T14:19:21.126Z,27.9
2018-06-30T14:21:23.492Z,56.5
2018-06-30T14:23:25.923Z,55.8
2018-06-30T14:25:28.259Z,58.3
2018-06-30T14:27:30.656Z,58
2018-06-30T14:29:33.032Z,58
2018-06-30T14:31:35.397Z,58
2018-06-30T14:33:37.765Z,58
2018-06-30T14:35:40.135Z,58.3
2018-06-30T14:37:42.588Z,56.5
2018-06-30T14:39:45.024Z,23.4
2018-06-30T14:41:47.386Z,35.5
2018-06-30T14:43:49.935Z,55.4
2018-06-30T14:45:52.373Z,55.8
2018-06-30T14:47:54.816Z,55.1
2018-06-30T14:49:57.163Z,53.3
2018-06-30T14:52:01.504Z,50.8
2018-06-30T14:54:03.813Z,43.4
2018-06-30T14:56:07.228Z,22.1
2018-06-30T14:58:09.591Z,8.6
2018-06-30T15:00:11.960Z,5.5
2018-06-30T15:02:14.328Z,12.1
2018-06-30T15:04:16.701Z,27.7
2018-06-30T15:06:19.118Z,6.8
2018-06-30T15:08:21.481Z,4.9
2018-06-30T15:10:23.849Z,4.3
2018-06-30T15:12:26.263Z,3.9
2018-06-30T15:14:28.670Z,3.6
2018-06-30T15:16:30.991Z,3.5
2018-06-30T15:18:33.409Z,3.3
2018-06-30T15:20:35.730Z,3
2018-06-30T15:22:38.095Z,2.8
2018-06-30T15:24:40.787Z,2.9
2018-06-30T15:26:43.153Z,3.6
2018-06-30T15:28:45.522Z,4.4
2018-06-30T15:30:47.890Z,4.7
2018-06-30T15:32:50.251Z,4.7
2018-06-30T15:34:52.672Z,4.5
2018-06-30T15:36:55.043Z,4.4
2018-06-30T15:38:57.406Z,4.3
2018-06-30T15:40:59.779Z,4.2
2018-06-30T15:43:02.142Z,4.2
2018-06-30T15:45:04.524Z,4.4
2018-06-30T15:47:06.885Z,4.4
2018-06-30T15:49:09.263Z,4.7
2018-06-30T15:51:11.629Z,4.9
2018-06-30T15:53:14.004Z,5.5
2018-06-30T15:55:16.394Z,6.3
2018-06-30T15:57:18.810Z,6.5
2018-06-30T15:59:21.315Z,7
2018-06-30T16:01:23.752Z,7
2018-06-30T16:03:26.075Z,7
2018-06-30T16:05:28.669Z,7.1
2018-06-30T16:07:31.061Z,6.8
2018-06-30T16:09:33.431Z,6.7
2018-06-30T16:11:35.829Z,6.6
2018-06-30T16:13:38.198Z,6.7
2018-06-30T16:15:40.564Z,7.1
2018-06-30T16:17:42.933Z,7.6
2018-06-30T16:19:45.300Z,7.5
2018-06-30T16:21:50.351Z,7.2
2018-06-30T16:23:52.719Z,7.9
2018-06-30T16:25:55.084Z,15.7
2018-06-30T16:27:57.499Z,11.5
2018-06-30T16:29:59.824Z,14.9
2018-06-30T16:32:02.233Z,15.8
2018-06-30T16:34:04.565Z,31
2018-06-30T16:36:07.117Z,27.9
2018-06-30T16:38:12.510Z,24.8
2018-06-30T16:40:14.884Z,29
2018-06-30T16:42:17.247Z,24.5
2018-06-30T16:44:19.647Z,28.6
2018-06-30T16:46:22.017Z,27.2
2018-06-30T16:48:24.387Z,26.8
2018-06-30T16:50:26.802Z,22.5
2018-06-30T16:52:29.171Z,12.5
2018-06-30T16:54:31.543Z,12.1
2018-06-30T16:56:33.908Z,11.4
2018-06-30T16:58:36.283Z,7.5
2018-06-30T17:00:39.012Z,13.6
2018-06-30T17:02:41.349Z,10.4
2018-06-30T17:04:43.723Z,9.4
2018-06-30T17:06:46.175Z,9.8
2018-06-30T17:08:48.482Z,11.5
2018-06-30T17:10:50.883Z,10.2
2018-06-30T17:12:53.261Z,9.2
2018-06-30T17:14:55.678Z,8.1
2018-06-30T17:16:58.014Z,7.7
2018-06-30T17:19:00.385Z,7.2
2018-06-30T17:21:02.753Z,6.8
2018-06-30T17:23:05.123Z,6.7
2018-06-30T17:25:07.489Z,6.6
2018-06-30T17:27:09.856Z,6.4
2018-06-30T17:29:12.224Z,6.4
2018-06-30T17:31:14.597Z,6.8
2018-06-30T17:33:16.963Z,8.5
2018-06-30T17:35:19.331Z,10.4
2018-06-30T17:37:21.698Z,10.3
2018-06-30T17:39:24.073Z,9.8
2018-06-30T17:41:26.442Z,9
2018-06-30T17:43:28.808Z,8.2
2018-06-30T17:45:31.176Z,7.5
2018-06-30T17:47:33.543Z,7
2018-06-30T17:49:35.907Z,6.3
2018-06-30T17:51:38.276Z,5.8
2018-06-30T17:53:40.647Z,5.6
2018-06-30T17:55:43.055Z,5.4
2018-06-30T17:57:45.419Z,5.2
2018-06-30T17:59:47.789Z,5
2018-06-30T18:01:50.153Z,4.9
2018-06-30T18:03:52.663Z,4.8
2018-06-30T18:05:55.234Z,4.8
2018-06-30T18:07:57.603Z,4.7
2018-06-30T18:10:00.149Z,4.7
2018-06-30T18:12:02.500Z,4.6
2018-06-30T18:14:04.976Z,4.6
2018-06-30T18:16:07.320Z,4.6
2018-06-30T18:18:12.371Z,4.6
2018-06-30T18:20:14.797Z,4.6
2018-06-30T18:22:17.109Z,4.5
2018-06-30T18:24:19.548Z,4.5
2018-06-30T18:26:21.868Z,4.5
2018-06-30T18:28:24.269Z,4.5
2018-06-30T18:30:26.603Z,4.5
2018-06-30T18:32:29.000Z,4.5
2018-06-30T18:34:31.374Z,4.5
2018-06-30T18:36:33.742Z,4.5
2018-06-30T18:38:36.105Z,4.5
2018-06-30T18:40:38.476Z,4.5
2018-06-30T18:42:40.846Z,4.5
2018-06-30T18:44:43.217Z,4.5
2018-06-30T18:46:46.161Z,4.5
2018-06-30T18:48:48.643Z,4.5
2018-06-30T18:50:51.033Z,4.5
2018-06-30T18:52:53.616Z,4.5
2018-06-30T18:54:56.271Z,4.5
2018-06-30T18:56:58.642Z,4.5
2018-06-30T18:59:01.023Z,4.5
2018-06-30T19:01:03.403Z,4.5
2018-06-30T19:03:05.916Z,4.5
2018-06-30T19:05:08.248Z,4.5
2018-06-30T19:07:11.561Z,4.5
2018-06-30T19:09:13.926Z,4.5
2018-06-30T19:11:16.336Z,4.5
2018-06-30T19:13:18.701Z,4.5
2018-06-30T19:15:21.070Z,4.5
2018-06-30T19:17:23.445Z,4.5
2018-06-30T19:19:25.816Z,4.5
2018-06-30T19:21:28.515Z,4.5
2018-06-30T19:23:30.890Z,4.5
2018-06-30T19:25:33.255Z,4.5
2018-06-30T19:27:35.623Z,4.5
2018-06-30T19:29:38.077Z,4.5
2018-06-30T19:31:40.400Z,4.5
2018-06-30T19:33:42.814Z,4.5
2018-06-30T19:35:45.137Z,4.5
2018-06-30T19:37:47.505Z,4.5
2018-06-30T19:39:49.871Z,4.5
2018-06-30T19:41:52.258Z,4.5
2018-06-30T19:43:54.762Z,4.5
2018-06-30T19:45:57.143Z,4.5
2018-06-30T19:47:59.523Z,4.5
2018-06-30T19:50:01.949Z,4.5
2018-06-30T19:52:04.327Z,4.5
2018-06-30T19:54:06.708Z,4.5
2018-06-30T19:56:09.110Z,4.5
2018-06-30T19:58:11.481Z,4.5
2018-06-30T20:00:13.872Z,4.5
2018-06-30T20:02:16.279Z,4.5
2018-06-30T20:04:18.773Z,4.5
2018-06-30T20:06:21.123Z,4.5
2018-06-30T20:08:24.097Z,4.5
2018-06-30T20:10:26.914Z,4.5
2018-06-30T20:12:29.348Z,4.5
2018-06-30T20:14:31.702Z,4.5
2018-06-30T20:16:34.069Z,4.5
2018-06-30T20:18:36.443Z,4.5
2018-06-30T20:20:38.822Z,4.5
2018-06-30T20:22:41.199Z,4.5
2018-06-30T20:24:43.579Z,4.5
2018-06-30T20:26:45.984Z,4.5
2018-06-30T20:28:48.352Z,4.5
2018-06-30T20:30:50.722Z,4.5
2018-06-30T20:32:53.098Z,4.5
2018-06-30T20:34:55.474Z,4.5
2018-06-30T20:36:57.836Z,4.5
2018-06-30T20:39:00.231Z,4.5
2018-06-30T20:41:02.595Z,4.5
2018-06-30T20:43:04.961Z,4.5
2018-06-30T20:45:08.656Z,4.5
2018-06-30T20:47:11.133Z,4.5
2018-06-30T20:49:13.496Z,4.5
2018-06-30T20:51:15.875Z,4.5
2018-06-30T20:53:18.240Z,4.5
2018-06-30T20:55:20.610Z,4.5
2018-06-30T20:57:22.983Z,4.5
2018-06-30T20:59:25.351Z,4.5
2018-06-30T21:01:28.018Z,4.5
2018-06-30T21:03:30.502Z,4.5
2018-06-30T21:05:32.890Z,4.5
2018-06-30T21:07:35.264Z,4.5
2018-06-30T21:09:37.631Z,4.5
2018-06-30T21:11:40.042Z,4.5
2018-06-30T21:13:43.415Z,4.5
2018-06-30T21:15:45.787Z,4.5
2018-06-30T21:17:48.190Z,4.5
2018-06-30T21:19:50.520Z,4.5
2018-06-30T21:21:53.151Z,4.5
2018-06-30T21:23:55.527Z,4.5
2018-06-30T21:25:57.964Z,4.5
2018-06-30T21:28:00.296Z,4.5
2018-06-30T21:30:02.660Z,4.5
2018-06-30T21:32:05.030Z,4.5
2018-06-30T21:34:07.400Z,4.5
2018-06-30T21:36:09.767Z,4.5
2018-06-30T21:38:12.130Z,4.5
2018-06-30T21:40:14.503Z,4.5
2018-06-30T21:42:16.869Z,4.5
2018-06-30T21:44:19.237Z,4.5
2018-06-30T21:46:21.607Z,4.5
2018-06-30T21:48:23.973Z,4.5
2018-06-30T21:50:26.341Z,4.5
2018-06-30T21:52:28.710Z,4.5
2018-06-30T21:54:31.077Z,4.5
2018-06-30T21:56:33.445Z,4.5
2018-06-30T21:58:35.814Z,4.5
2018-06-30T22:00:38.218Z,4.5
2018-06-30T22:02:40.551Z,4.5
2018-06-30T22:04:42.933Z,4.5
2018-06-30T22:06:45.294Z,4.5
2018-06-30T22:08:47.784Z,4.5
2018-06-30T22:10:50.560Z,4.5
2018-06-30T22:12:53.069Z,4.5
2018-06-30T22:14:55.436Z,4.5
2018-06-30T22:16:57.802Z,4.5
2018-06-30T22:19:00.170Z,4.5
2018-06-30T22:21:02.539Z,4.5
2018-06-30T22:23:04.955Z,4.5
2018-06-30T22:25:07.323Z,4.5
2018-06-30T22:27:09.716Z,4.5
2018-06-30T22:29:12.056Z,4.5
2018-06-30T22:31:14.451Z,4.5
2018-06-30T22:33:16.820Z,4.5
2018-06-30T22:35:19.411Z,4.5
2018-06-30T22:37:21.779Z,4.5
2018-06-30T22:39:24.230Z,4.5
2018-06-30T22:41:26.542Z,4.5
2018-06-30T22:43:29.843Z,4.5
2018-06-30T22:45:32.209Z,4.5
2018-06-30T22:47:34.580Z,4.5
2018-06-30T22:49:36.944Z,4.5
2018-06-30T22:51:39.312Z,4.5
2018-06-30T22:53:41.696Z,4.5
2018-06-30T22:55:44.053Z,4.5
2018-06-30T22:57:46.414Z,4.5
2018-06-30T22:59:48.784Z,4.5
2018-06-30T23:01:51.150Z,4.5
2018-06-30T23:03:53.517Z,4.5
2018-06-30T23:05:55.938Z,4.5
2018-06-30T23:07:58.283Z,4.5
2018-06-30T23:10:00.651Z,4.5
2018-06-30T23:12:03.019Z,4.5
2018-06-30T23:14:05.388Z,4.5
2018-06-30T23:16:07.757Z,4.5
2018-06-30T23:18:10.125Z,4.5
2018-06-30T23:20:12.491Z,4.5
2018-06-30T23:22:14.887Z,4.5
2018-06-30T23:24:17.303Z,4.5
2018-06-30T23:26:19.670Z,4.5
2018-06-30T23:28:22.038Z,4.5
2018-06-30T23:30:24.405Z,4.5
2018-06-30T23:32:26.773Z,4.5
2018-06-30T23:34:29.139Z,4.5
2018-06-30T23:36:31.506Z,4.5
2018-06-30T23:38:33.875Z,4.5
2018-06-30T23:40:36.292Z,4.5
2018-06-30T23:42:38.636Z,4.5
2018-06-30T23:44:41.548Z,4.5
2018-06-30T23:46:44.066Z,4.5
2018-06-30T23:48:46.435Z,4.5
2018-06-30T23:50:48.807Z,4.5
2018-06-30T23:52:51.174Z,4.5
2018-06-30T23:54:53.620Z,4.5
2018-06-30T23:56:55.987Z,4.5
2018-06-30T23:58:58.355Z,4.5
